TULLOCH (TUL)

Elevation: 515' · STANISLAUS R basin · Operator: US Bureau of Reclamation

Provisional data, subject to change.
Query executed Tuesday at 7:56:52   clock

Select a sensor type for a plot of data.
Note: Reservoir Flows are daily averages.

Earlier

Date RES ELE    STORAGE    RES CHG    TOC STO    ABV TOC    OUTFLOW    INFLOW    EVAP    RIV REL    SPILL    DIS PWR   
 FEET   AF   AF   AF   AF   CFS   CFS   CFS   CFS   CFS   CFS  
07/31/2016 508.85 65535 504 67000 -1465 1707 1980 19 0 0 1707
08/01/2016 508.79 65461 -74 67000 -1539 1636 1617 18 0 0 1636
08/02/2016 508.81 65486 25 67000 -1514 1573 1602 16 0 0 1573
08/03/2016 509.29 66082 596 67000 -918 1530 1845 15 0 0 1530
08/04/2016 509.06 65795 -287 67000 -1205 1503 1375 17 0 0 1503
08/05/2016 508.69 65338 -457 67000 -1662 1487 1274 17 0 0 1487
08/06/2016 508.20 64735 -603 67000 -2265 1550 1263 17 0 0 1550
08/07/2016 508.37 64944 209 67000 -2056 1549 1670 16 0 0 1549
08/08/2016 508.68 65326 382 67000 -1674 1583 1792 16 0 0 1583
08/09/2016 509.43 66257 931 67000 -743 1638 2123 16 0 0 1638
08/10/2016 509.10 65845 -412 67000 -1155 1670 1477 15 0 0 1670
08/11/2016 508.89 65585 -260 67000 -1415 1648 1533 16 0 0 1648
08/12/2016 508.93 65634 49 67000 -1366 1559 1600 16 0 0 1559
08/13/2016 508.71 65363 -271 67000 -1637 1535 1413 15 0 0 1535
08/14/2016 509.16 65920 557 67000 -1080 1499 1797 17 0 0 1499
08/15/2016 508.91 65609 -311 67000 -1391 1386 1248 19 0 0 1386
08/16/2016 509.07 65807 198 67000 -1193 1324 1442 18 0 0 1324
08/17/2016 508.96 65671 -136 67000 -1329 1317 1266 18 0 0 1317
08/18/2016 508.85 65535 -136 67000 -1465 1314 1263 18 0 0 1314
08/19/2016 509.28 66069 534 67000 -931 1214 1502 19 0 0 1214
08/20/2016 509.35 66157 88 67000 -843 1166 1222 12 0 0 1166
08/21/2016 509.37 66182 25 67000 -818 1130 1155 12 0 0 1130
08/22/2016 509.40 66219 37 67000 -781 1139 1174 16 0 0 1139
08/23/2016 509.00 65720 -499 67000 -1280 1173 936 15 0 0 1173
08/24/2016 507.87 64331 -1389 67000 -2669 1175 491 16 0 0 1175
08/25/2016 508.28 64834 503 67000 -2166 1141 1410 15 0 0 1141
08/26/2016 508.22 64760 -74 67000 -2240 1073 1049 13 0 0 1073
08/27/2016 508.41 64994 234 67000 -2006 1016 1148 14 0 0 1016
08/28/2016 507.91 64380 -614 67000 -2620 957 659 12 0 0 957
08/29/2016 507.80 64247 -133 67000 -2753 907 853 13 0 0 907
08/30/2016 -- -- -- -- -- -- -- -- -- -- --

Later | Latest

Warning! This data is preliminary and subject to revision.

Show TUL Map | Plot TUL Data | 1 Month TUL Data | Real-Time TUL Data | TUL Info